createdAt,value
2019-05-28T00:00:01.887Z,0.00
2019-05-28T00:00:50.759Z,0.00
2019-05-28T00:01:50.728Z,0.00
2019-05-28T00:02:50.706Z,0.00
2019-05-28T00:03:50.686Z,0.00
2019-05-28T00:04:50.688Z,0.00
2019-05-28T00:05:50.684Z,0.00
2019-05-28T00:06:50.642Z,0.00
2019-05-28T00:07:50.618Z,0.00
2019-05-28T00:08:50.597Z,0.00
2019-05-28T00:09:50.567Z,0.00
2019-05-28T00:10:50.551Z,0.00
2019-05-28T00:11:50.509Z,0.00
2019-05-28T00:12:50.488Z,0.00
2019-05-28T00:13:50.480Z,0.00
2019-05-28T00:14:50.473Z,0.00
2019-05-28T00:15:50.447Z,0.00
2019-05-28T00:16:50.415Z,0.00
2019-05-28T00:17:50.401Z,0.00
2019-05-28T00:18:50.370Z,0.00
2019-05-28T00:19:50.363Z,0.00
2019-05-28T00:20:50.326Z,0.00
2019-05-28T00:21:50.296Z,0.00
2019-05-28T00:22:50.257Z,0.00
2019-05-28T00:23:50.255Z,0.00
2019-05-28T00:24:50.233Z,0.00
2019-05-28T00:25:50.209Z,0.00
2019-05-28T00:26:50.198Z,0.00
2019-05-28T00:27:50.174Z,0.00
2019-05-28T00:28:50.139Z,0.00
2019-05-28T00:29:50.098Z,0.00
2019-05-28T00:30:50.100Z,0.00
2019-05-28T00:31:50.076Z,0.00
2019-05-28T00:32:50.052Z,0.00
2019-05-28T00:33:50.029Z,0.00
2019-05-28T00:34:50.004Z,0.00
2019-05-28T00:35:49.967Z,0.00
2019-05-28T00:36:49.969Z,0.00
2019-05-28T00:37:49.943Z,0.00
2019-05-28T00:38:49.921Z,0.00
2019-05-28T00:39:49.896Z,0.00
2019-05-28T00:40:49.871Z,0.00
2019-05-28T00:41:49.906Z,0.00
2019-05-28T00:42:49.834Z,0.00
2019-05-28T00:43:49.809Z,0.00
2019-05-28T00:44:49.785Z,0.00
2019-05-28T00:45:49.765Z,0.00
2019-05-28T00:46:49.717Z,0.00
2019-05-28T00:47:49.718Z,0.00
2019-05-28T00:48:49.692Z,0.00
2019-05-28T00:49:49.968Z,0.00
2019-05-28T00:50:49.647Z,0.00
2019-05-28T00:51:49.625Z,0.00
2019-05-28T00:52:49.603Z,0.00
2019-05-28T00:53:49.562Z,0.00
2019-05-28T00:54:49.764Z,0.00
2019-05-28T00:55:49.535Z,0.00
2019-05-28T00:56:49.545Z,0.00
2019-05-28T00:57:49.482Z,0.00
2019-05-28T00:58:49.473Z,0.00
2019-05-28T00:59:49.451Z,0.00
2019-05-28T01:00:49.421Z,0.00
2019-05-28T01:01:49.396Z,0.00
2019-05-28T01:02:49.357Z,0.00
2019-05-28T01:03:49.360Z,0.00
2019-05-28T01:04:49.341Z,0.00
2019-05-28T01:05:49.312Z,0.00
2019-05-28T01:06:49.303Z,0.00
2019-05-28T01:07:49.263Z,0.00
2019-05-28T01:08:49.237Z,0.00
2019-05-28T01:09:49.209Z,0.00
2019-05-28T01:10:49.201Z,0.00
2019-05-28T01:11:49.169Z,0.00
2019-05-28T01:12:49.142Z,0.00
2019-05-28T01:13:49.129Z,0.00
2019-05-28T01:14:49.111Z,0.00
2019-05-28T01:15:49.087Z,0.00
2019-05-28T01:16:49.058Z,0.00
2019-05-28T01:17:49.039Z,0.00
2019-05-28T01:18:49.006Z,0.00
2019-05-28T01:19:48.984Z,0.00
2019-05-28T01:20:48.974Z,0.00
2019-05-28T01:21:48.951Z,0.00
2019-05-28T01:22:48.905Z,0.00
2019-05-28T01:23:48.978Z,0.00
2019-05-28T01:24:48.872Z,0.00
2019-05-28T01:25:48.858Z,0.00
2019-05-28T01:26:48.827Z,0.00
2019-05-28T01:27:48.785Z,0.00
2019-05-28T01:28:48.766Z,0.00
2019-05-28T01:29:48.762Z,0.00
2019-05-28T01:30:57.468Z,0.00
2019-05-28T01:31:48.719Z,0.00
2019-05-28T01:32:48.688Z,0.00
2019-05-28T01:33:48.666Z,0.00
2019-05-28T01:34:48.653Z,0.00
2019-05-28T01:35:48.629Z,0.00
2019-05-28T01:36:48.587Z,0.00
2019-05-28T01:37:48.573Z,0.00
2019-05-28T01:38:48.552Z,0.00
2019-05-28T01:39:48.528Z,0.00
2019-05-28T01:40:48.514Z,0.00
2019-05-28T01:41:48.484Z,0.00
2019-05-28T01:42:48.458Z,0.00
2019-05-28T01:43:48.441Z,0.00
2019-05-28T01:44:48.424Z,0.00
2019-05-28T01:45:48.396Z,0.00
2019-05-28T01:46:48.381Z,0.00
2019-05-28T01:47:48.348Z,0.00
2019-05-28T01:48:48.328Z,0.00
2019-05-28T01:49:48.305Z,0.00
2019-05-28T01:50:48.286Z,0.00
2019-05-28T01:51:48.248Z,0.00
2019-05-28T01:52:48.240Z,0.00
2019-05-28T01:53:48.215Z,0.00
2019-05-28T01:54:48.167Z,0.00
2019-05-28T01:55:48.172Z,0.00
2019-05-28T01:56:48.125Z,0.00
2019-05-28T01:57:48.112Z,0.00
2019-05-28T01:58:48.073Z,0.00
2019-05-28T01:59:48.066Z,0.00
2019-05-28T02:00:48.051Z,0.00
2019-05-28T02:01:48.004Z,0.00
2019-05-28T02:02:47.996Z,0.00
2019-05-28T02:03:47.961Z,0.00
2019-05-28T02:04:48.210Z,0.00
2019-05-28T02:05:47.931Z,0.00
2019-05-28T02:06:47.902Z,0.00
2019-05-28T02:07:47.890Z,0.00
2019-05-28T02:08:47.868Z,0.00
2019-05-28T02:09:47.838Z,0.00
2019-05-28T02:10:47.824Z,0.00
2019-05-28T02:11:47.788Z,0.00
2019-05-28T02:16:15.710Z,0.00
2019-05-28T02:17:15.690Z,0.00
2019-05-28T02:18:15.665Z,0.00
2019-05-28T02:19:15.641Z,0.00
2019-05-28T02:20:15.608Z,0.00
2019-05-28T02:21:15.587Z,0.00
2019-05-28T02:22:15.569Z,0.00
2019-05-28T02:23:15.554Z,0.00
2019-05-28T02:24:15.520Z,0.00
2019-05-28T02:25:15.498Z,0.00
2019-05-28T02:26:15.483Z,0.00
2019-05-28T02:27:15.453Z,0.00
2019-05-28T02:28:15.430Z,0.00
2019-05-28T02:29:15.410Z,0.00
2019-05-28T02:30:15.415Z,0.00
2019-05-28T02:31:27.446Z,0.00
2019-05-28T02:32:15.335Z,0.00
2019-05-28T02:33:15.317Z,0.00
2019-05-28T02:34:15.290Z,0.00
2019-05-28T02:35:15.276Z,0.00
2019-05-28T02:36:15.249Z,0.00
2019-05-28T02:37:15.224Z,0.00
2019-05-28T02:38:15.195Z,0.00
2019-05-28T02:39:15.182Z,0.00
2019-05-28T02:40:15.154Z,0.00
2019-05-28T02:41:15.131Z,0.00
2019-05-28T02:42:15.088Z,0.00
2019-05-28T02:43:15.082Z,0.00
2019-05-28T02:44:15.043Z,0.00
2019-05-28T02:45:15.021Z,0.00
2019-05-28T02:46:15.011Z,0.00
2019-05-28T02:47:15.001Z,0.00
2019-05-28T02:48:14.967Z,0.00
2019-05-28T02:49:14.961Z,0.00
2019-05-28T02:50:14.929Z,0.00
2019-05-28T02:51:14.901Z,0.00
2019-05-28T02:52:14.868Z,0.00
2019-05-28T02:53:14.847Z,0.00
2019-05-28T02:54:14.827Z,0.00
2019-05-28T02:55:14.785Z,0.00
2019-05-28T02:56:14.779Z,0.00
2019-05-28T02:57:14.760Z,0.00
2019-05-28T02:58:14.714Z,0.00
2019-05-28T02:59:14.717Z,0.00
2019-05-28T03:00:14.685Z,0.00
2019-05-28T03:01:14.665Z,0.00
2019-05-28T03:02:14.639Z,0.00
2019-05-28T03:03:14.602Z,0.00
2019-05-28T03:04:14.573Z,0.00
2019-05-28T03:05:14.561Z,0.00
2019-05-28T03:06:14.525Z,0.00
2019-05-28T03:07:14.524Z,0.00
2019-05-28T03:08:14.504Z,0.00
2019-05-28T03:09:14.480Z,0.00
2019-05-28T03:10:14.461Z,0.00
2019-05-28T03:11:14.431Z,0.00
2019-05-28T03:13:15.121Z,0.00
2019-05-28T03:14:14.363Z,0.00
2019-05-28T03:15:14.333Z,0.00
2019-05-28T03:16:14.312Z,0.00
2019-05-28T03:17:14.289Z,0.00
2019-05-28T03:18:14.267Z,0.00
2019-05-28T03:19:14.226Z,0.00
2019-05-28T03:20:14.205Z,0.00
2019-05-28T03:21:14.171Z,0.00
2019-05-28T03:22:14.151Z,0.00
2019-05-28T03:23:14.145Z,0.00
2019-05-28T03:24:14.124Z,0.00
2019-05-28T03:25:14.098Z,0.00
2019-05-28T03:26:14.077Z,0.00
2019-05-28T03:27:14.058Z,0.00
2019-05-28T03:28:14.032Z,0.00
2019-05-28T03:29:14.009Z,0.00
2019-05-28T03:30:13.993Z,0.00
2019-05-28T03:31:13.965Z,0.00
2019-05-28T03:32:13.950Z,0.00
2019-05-28T03:33:13.917Z,0.00
2019-05-28T03:34:13.890Z,0.00
2019-05-28T03:35:13.868Z,0.00
2019-05-28T03:36:13.846Z,0.00
2019-05-28T03:37:13.825Z,0.00
2019-05-28T03:38:13.798Z,0.00
2019-05-28T03:39:13.770Z,0.00
2019-05-28T03:40:13.752Z,0.00
2019-05-28T03:41:13.725Z,0.00
2019-05-28T03:42:13.700Z,0.00
2019-05-28T03:43:13.656Z,0.00
2019-05-28T03:44:13.659Z,0.00
2019-05-28T03:45:13.609Z,0.00
2019-05-28T03:46:13.611Z,0.00
2019-05-28T03:47:13.591Z,0.00
2019-05-28T03:48:13.561Z,0.00
2019-05-28T03:49:13.537Z,0.00
2019-05-28T03:50:13.508Z,0.00
2019-05-28T03:51:13.486Z,0.00
2019-05-28T03:52:13.464Z,0.00
2019-05-28T03:53:13.468Z,0.00
2019-05-28T03:54:13.416Z,0.00
2019-05-28T03:55:13.400Z,0.00
2019-05-28T03:56:13.368Z,0.00
2019-05-28T03:57:13.331Z,0.00
2019-05-28T03:58:13.321Z,0.00
2019-05-28T03:59:13.332Z,0.00
2019-05-28T04:00:13.275Z,0.00
2019-05-28T04:01:13.257Z,0.00
2019-05-28T04:02:23.304Z,0.00
2019-05-28T04:03:13.202Z,0.00
2019-05-28T04:04:13.192Z,0.00
2019-05-28T04:05:13.157Z,0.00
2019-05-28T04:06:13.115Z,0.00
2019-05-28T04:07:13.111Z,0.00
2019-05-28T04:08:13.190Z,0.00
2019-05-28T04:09:13.060Z,0.00
2019-05-28T04:10:13.047Z,0.00
2019-05-28T04:11:13.015Z,0.00
2019-05-28T04:12:12.993Z,0.00
2019-05-28T04:13:12.947Z,0.00
2019-05-28T04:14:12.977Z,0.00
2019-05-28T04:15:12.915Z,0.00
2019-05-28T04:16:12.893Z,0.00
2019-05-28T04:17:12.874Z,0.00
2019-05-28T04:18:12.846Z,0.00
2019-05-28T04:19:12.824Z,0.00
2019-05-28T04:20:12.806Z,0.00
2019-05-28T04:21:12.777Z,0.00
2019-05-28T04:22:12.758Z,0.00
2019-05-28T04:23:12.731Z,0.00
2019-05-28T04:24:12.698Z,0.00
2019-05-28T04:25:12.685Z,0.00
2019-05-28T04:26:12.652Z,0.00
2019-05-28T04:27:12.631Z,0.00
2019-05-28T04:28:12.602Z,0.00
2019-05-28T04:29:12.569Z,0.00
2019-05-28T04:30:12.557Z,0.00
2019-05-28T04:31:12.531Z,0.00
2019-05-28T04:32:12.508Z,0.00
2019-05-28T04:33:12.487Z,0.00
2019-05-28T04:34:12.457Z,0.00
2019-05-28T04:35:12.443Z,0.00
2019-05-28T04:36:12.418Z,0.00
2019-05-28T04:37:12.371Z,0.00
2019-05-28T04:38:12.346Z,0.00
2019-05-28T04:39:12.341Z,0.00
2019-05-28T04:40:12.317Z,0.00
2019-05-28T04:41:12.279Z,0.00
2019-05-28T04:42:12.275Z,0.00
2019-05-28T04:43:12.250Z,0.00
2019-05-28T04:44:12.224Z,0.00
2019-05-28T04:45:12.196Z,0.00
2019-05-28T04:46:12.170Z,0.00
2019-05-28T04:47:12.151Z,0.00
2019-05-28T04:48:12.128Z,0.00
2019-05-28T04:49:12.106Z,0.00
2019-05-28T04:50:12.079Z,0.00
2019-05-28T04:51:12.058Z,0.00
2019-05-28T04:52:12.033Z,0.00
2019-05-28T04:53:12.010Z,0.00
2019-05-28T04:54:11.979Z,0.00
2019-05-28T04:55:11.963Z,0.00
2019-05-28T04:56:11.918Z,0.00
2019-05-28T04:57:11.909Z,0.00
2019-05-28T04:58:11.891Z,0.00
2019-05-28T04:59:11.857Z,0.00
2019-05-28T05:00:11.832Z,0.00
2019-05-28T05:01:11.811Z,0.00
2019-05-28T05:02:11.794Z,0.00
2019-05-28T05:03:11.761Z,0.00
2019-05-28T05:04:11.734Z,0.00
2019-05-28T05:05:11.718Z,0.00
2019-05-28T05:06:11.676Z,0.00
2019-05-28T05:07:11.663Z,0.00
2019-05-28T05:08:11.645Z,0.00
2019-05-28T05:09:11.677Z,0.00
2019-05-28T05:10:11.599Z,0.00
2019-05-28T05:11:11.572Z,0.00
2019-05-28T05:12:11.527Z,0.00
2019-05-28T05:13:11.521Z,0.00
2019-05-28T05:14:11.485Z,0.00
2019-05-28T05:15:11.523Z,0.00
2019-05-28T05:16:11.454Z,0.00
2019-05-28T05:17:11.429Z,0.00
2019-05-28T05:18:11.408Z,0.00
2019-05-28T05:19:11.363Z,0.00
2019-05-28T05:20:11.337Z,0.00
2019-05-28T05:21:11.367Z,0.00
2019-05-28T05:22:11.310Z,0.00
2019-05-28T05:23:11.278Z,0.00
2019-05-28T05:24:11.256Z,0.00
2019-05-28T05:25:44.436Z,0.00
2019-05-28T05:26:11.212Z,0.00
2019-05-28T05:27:11.183Z,0.00
2019-05-28T05:28:11.214Z,0.00
2019-05-28T05:29:11.138Z,0.00
2019-05-28T05:30:11.115Z,0.00
2019-05-28T05:31:11.097Z,0.00
2019-05-28T05:32:11.059Z,0.00
2019-05-28T05:33:19.956Z,0.00
2019-05-28T05:34:11.019Z,0.00
2019-05-28T05:35:10.975Z,0.00
2019-05-28T05:36:10.968Z,0.00
2019-05-28T05:37:10.939Z,0.00
2019-05-28T05:38:10.903Z,0.00
2019-05-28T05:39:10.875Z,0.00
2019-05-28T05:40:10.870Z,0.00
2019-05-28T05:41:10.840Z,0.00
2019-05-28T05:42:10.817Z,0.00
2019-05-28T05:43:10.797Z,0.00
2019-05-28T05:44:10.771Z,0.00
2019-05-28T05:45:10.730Z,0.00
2019-05-28T05:46:10.727Z,0.00
2019-05-28T05:47:10.727Z,0.00
2019-05-28T05:48:10.685Z,0.00
2019-05-28T05:49:10.649Z,0.00
2019-05-28T05:50:10.628Z,0.00
2019-05-28T05:51:10.605Z,0.00
2019-05-28T05:52:10.578Z,0.00
2019-05-28T05:53:10.549Z,0.00
2019-05-28T05:54:10.525Z,0.00
2019-05-28T05:55:10.508Z,0.00
2019-05-28T05:56:10.475Z,0.00
2019-05-28T05:57:10.458Z,0.00
2019-05-28T05:58:10.431Z,0.00
2019-05-28T05:59:10.407Z,0.00
2019-05-28T06:00:11.686Z,0.00
2019-05-28T06:01:10.365Z,0.00
2019-05-28T06:02:10.316Z,0.00
2019-05-28T06:03:10.312Z,0.00
2019-05-28T06:04:10.287Z,0.00
2019-05-28T06:05:10.240Z,0.00
2019-05-28T06:06:10.238Z,0.00
2019-05-28T06:07:10.213Z,0.00
2019-05-28T06:08:10.212Z,0.00
2019-05-28T06:09:10.159Z,0.00
2019-05-28T06:10:10.145Z,0.00
2019-05-28T06:11:10.179Z,0.00
2019-05-28T06:12:10.092Z,0.00
2019-05-28T06:13:10.071Z,0.00
2019-05-28T06:14:10.048Z,0.00
2019-05-28T06:15:10.040Z,0.00
2019-05-28T06:16:09.995Z,0.00
2019-05-28T06:17:10.010Z,0.00
2019-05-28T06:18:09.969Z,0.00
2019-05-28T06:19:09.934Z,0.00
2019-05-28T06:20:09.895Z,0.00
2019-05-28T06:21:16.093Z,0.00
2019-05-28T06:22:09.852Z,0.00
2019-05-28T06:23:09.826Z,0.00
2019-05-28T06:24:09.800Z,0.00
2019-05-28T06:25:09.783Z,0.00
2019-05-28T06:26:09.736Z,0.00
2019-05-28T06:27:09.707Z,0.00
2019-05-28T06:28:09.699Z,0.00
2019-05-28T06:29:09.677Z,0.00
2019-05-28T06:30:09.647Z,0.00
2019-05-28T06:31:09.614Z,0.00
2019-05-28T06:32:09.609Z,0.00
2019-05-28T06:33:09.574Z,0.00
2019-05-28T06:34:09.557Z,0.00
2019-05-28T06:35:09.535Z,0.00
2019-05-28T06:36:09.496Z,0.00
2019-05-28T06:37:09.484Z,0.00
2019-05-28T06:38:09.497Z,0.00
2019-05-28T06:39:09.438Z,0.00
2019-05-28T06:40:09.415Z,0.00
2019-05-28T06:41:09.387Z,0.00
2019-05-28T06:42:09.367Z,0.00
2019-05-28T06:43:09.477Z,0.00
2019-05-28T06:44:09.300Z,0.00
2019-05-28T06:45:09.294Z,0.00
2019-05-28T06:46:09.268Z,0.00
2019-05-28T06:47:09.242Z,0.00
2019-05-28T06:48:09.213Z,0.00
2019-05-28T06:49:09.188Z,0.00
2019-05-28T06:50:09.412Z,0.00
2019-05-28T06:51:09.146Z,0.00
2019-05-28T06:52:09.118Z,0.00
2019-05-28T06:53:09.125Z,0.00
2019-05-28T06:54:11.733Z,0.00
2019-05-28T06:55:09.054Z,0.00
2019-05-28T06:56:09.021Z,0.00
2019-05-28T06:57:22.487Z,0.00
2019-05-28T06:58:08.979Z,0.00
2019-05-28T06:59:08.959Z,0.00
2019-05-28T07:00:08.909Z,0.00
2019-05-28T07:01:08.936Z,0.00
2019-05-28T07:02:08.881Z,0.00
2019-05-28T07:03:08.863Z,0.00
2019-05-28T07:04:14.053Z,0.00
2019-05-28T07:05:08.807Z,0.00
2019-05-28T07:06:08.787Z,0.00
2019-05-28T07:07:08.763Z,0.00
2019-05-28T07:08:08.732Z,0.00
2019-05-28T07:09:08.715Z,0.00
2019-05-28T07:10:08.686Z,0.00
2019-05-28T07:11:08.645Z,0.00
2019-05-28T07:12:08.642Z,0.00
2019-05-28T07:13:08.620Z,0.00
2019-05-28T07:14:08.587Z,0.00
2019-05-28T07:15:08.576Z,0.00
2019-05-28T07:16:08.549Z,0.00
2019-05-28T07:17:08.505Z,0.00
2019-05-28T07:18:08.499Z,0.00
2019-05-28T07:19:23.410Z,0.00
2019-05-28T07:20:08.431Z,0.00
2019-05-28T07:21:08.409Z,0.00
2019-05-28T07:22:08.381Z,0.00
2019-05-28T07:23:08.380Z,0.00
2019-05-28T07:24:08.329Z,0.00
2019-05-28T07:25:08.327Z,0.00
2019-05-28T07:26:08.307Z,0.00
2019-05-28T07:27:41.487Z,0.00
2019-05-28T07:28:11.535Z,0.00
2019-05-28T07:29:08.239Z,0.00
2019-05-28T07:30:08.209Z,0.00
2019-05-28T07:31:08.181Z,0.00
2019-05-28T07:32:08.167Z,0.00
2019-05-28T07:33:08.158Z,0.00
2019-05-28T07:34:08.108Z,0.00
2019-05-28T07:35:08.091Z,0.00
2019-05-28T07:36:08.071Z,0.00
2019-05-28T07:37:08.037Z,0.00
2019-05-28T07:38:08.011Z,0.00
2019-05-28T07:39:11.377Z,0.00
2019-05-28T07:40:07.967Z,0.00
2019-05-28T07:41:07.939Z,0.00
2019-05-28T07:42:07.920Z,0.00
2019-05-28T07:43:07.902Z,0.00
2019-05-28T07:44:07.848Z,0.00
2019-05-28T07:45:07.900Z,0.00
2019-05-28T07:46:07.823Z,0.00
2019-05-28T07:47:11.117Z,0.00
2019-05-28T07:48:07.772Z,0.00
2019-05-28T07:49:07.741Z,0.00
2019-05-28T07:50:07.703Z,0.00
2019-05-28T07:51:07.701Z,0.00
2019-05-28T07:52:07.675Z,0.00
2019-05-28T07:53:07.653Z,0.00
2019-05-28T07:54:07.627Z,0.00
2019-05-28T07:55:07.614Z,0.00
2019-05-28T07:56:07.616Z,0.00
2019-05-28T07:57:07.561Z,0.00
2019-05-28T07:58:07.532Z,0.00
2019-05-28T07:59:07.500Z,0.00
2019-05-28T08:00:07.457Z,0.00
2019-05-28T08:01:07.456Z,0.00
2019-05-28T08:02:07.438Z,0.00
2019-05-28T08:03:07.404Z,0.00
2019-05-28T08:04:07.379Z,0.00
2019-05-28T08:05:07.355Z,0.00
2019-05-28T08:06:07.326Z,0.00
2019-05-28T08:07:07.313Z,0.00
2019-05-28T08:08:07.278Z,0.00
2019-05-28T08:09:07.253Z,0.00
2019-05-28T08:10:07.235Z,0.00
2019-05-28T08:11:07.212Z,0.00
2019-05-28T08:12:07.187Z,0.00
2019-05-28T08:13:07.157Z,0.00
2019-05-28T08:14:07.138Z,0.00
2019-05-28T08:15:07.116Z,0.00
2019-05-28T08:16:18.219Z,0.00
2019-05-28T08:17:07.051Z,0.00
2019-05-28T08:18:07.037Z,0.00
2019-05-28T08:19:08.917Z,0.00
2019-05-28T08:20:07.005Z,0.00
2019-05-28T08:21:06.966Z,0.00
2019-05-28T08:22:06.936Z,0.00
2019-05-28T08:23:06.925Z,0.00
2019-05-28T08:24:06.884Z,0.00
2019-05-28T08:25:23.686Z,0.00
2019-05-28T08:26:06.844Z,0.00
2019-05-28T08:27:06.823Z,0.00
2019-05-28T08:28:19.496Z,0.00
2019-05-28T08:29:06.776Z,0.00
2019-05-28T08:30:06.739Z,0.00
2019-05-28T08:31:16.094Z,0.00
2019-05-28T08:32:06.693Z,0.00
2019-05-28T08:33:06.673Z,0.00
2019-05-28T08:34:06.647Z,0.00
2019-05-28T08:35:06.695Z,0.00
2019-05-28T08:36:06.599Z,0.00
2019-05-28T08:37:06.901Z,0.00
2019-05-28T08:38:06.558Z,0.00
2019-05-28T08:39:06.531Z,0.00
2019-05-28T08:40:06.509Z,0.00
2019-05-28T08:41:06.475Z,0.00
2019-05-28T08:42:06.436Z,0.00
2019-05-28T08:43:06.446Z,0.00
2019-05-28T08:44:06.406Z,0.00
2019-05-28T08:45:06.376Z,0.00
2019-05-28T08:46:06.358Z,0.00
2019-05-28T08:47:06.333Z,0.00
2019-05-28T08:48:06.309Z,0.00
2019-05-28T08:49:06.286Z,0.00
2019-05-28T08:50:06.261Z,0.00
2019-05-28T08:51:10.097Z,0.00
2019-05-28T08:52:06.213Z,0.00
2019-05-28T08:53:06.194Z,0.00
2019-05-28T08:54:06.164Z,0.00
2019-05-28T08:55:06.148Z,0.00
2019-05-28T08:56:06.116Z,0.00
2019-05-28T08:57:06.078Z,0.00
2019-05-28T08:58:06.122Z,0.00
2019-05-28T08:59:06.046Z,0.00
2019-05-28T09:00:06.021Z,0.00
2019-05-28T09:01:05.990Z,0.00
2019-05-28T09:02:05.968Z,0.00
2019-05-28T09:03:39.151Z,0.00
2019-05-28T09:04:05.921Z,0.00
2019-05-28T09:05:24.762Z,0.00
2019-05-28T09:06:05.888Z,0.00
2019-05-28T09:07:05.854Z,0.00
2019-05-28T09:08:05.809Z,0.00
2019-05-28T09:09:05.808Z,0.00
2019-05-28T09:10:05.755Z,0.00
2019-05-28T09:11:05.827Z,4.00
2019-05-28T09:12:05.737Z,0.00
2019-05-28T09:13:05.726Z,4.00
2019-05-28T09:14:05.680Z,0.00
2019-05-28T09:15:05.677Z,4.00
2019-05-28T09:16:05.629Z,4.00
2019-05-28T09:17:05.765Z,4.00
2019-05-28T09:18:05.782Z,8.00
2019-05-28T09:19:05.566Z,8.00
2019-05-28T09:20:05.538Z,8.00
2019-05-28T09:21:05.511Z,12.00
2019-05-28T09:22:05.491Z,16.00
2019-05-28T09:23:05.473Z,20.00
2019-05-28T09:24:05.446Z,28.00
2019-05-28T09:25:05.413Z,36.00
2019-05-28T09:26:05.393Z,40.00
2019-05-28T09:27:05.408Z,52.00
2019-05-28T09:28:05.361Z,68.00
2019-05-28T09:29:05.316Z,80.00
2019-05-28T09:30:05.292Z,100.00
2019-05-28T09:31:05.276Z,120.00
2019-05-28T09:32:05.236Z,140.00
2019-05-28T09:33:05.252Z,164.00
2019-05-28T09:34:05.182Z,192.00
2019-05-28T09:35:05.158Z,228.00
2019-05-28T09:36:08.575Z,260.00
2019-05-28T09:37:05.128Z,296.00
2019-05-28T09:38:05.103Z,340.00
2019-05-28T09:39:05.061Z,392.00
2019-05-28T09:40:05.053Z,448.00
2019-05-28T09:41:06.159Z,504.00
2019-05-28T09:42:05.008Z,564.00
2019-05-28T09:43:04.983Z,632.00
2019-05-28T09:44:04.954Z,700.00
2019-05-28T09:45:21.419Z,788.00
2019-05-28T09:46:04.905Z,884.00
2019-05-28T09:47:04.886Z,976.00
2019-05-28T09:48:04.846Z,1064.00
2019-05-28T09:49:04.818Z,1156.00
2019-05-28T09:50:04.811Z,1252.00
2019-05-28T09:51:04.790Z,1368.00
2019-05-28T09:52:04.765Z,1488.00
2019-05-28T09:53:04.729Z,1596.00
2019-05-28T09:54:04.714Z,1724.00
2019-05-28T09:55:04.688Z,1824.00
2019-05-28T09:56:04.652Z,1996.00
2019-05-28T09:57:04.647Z,2252.00
2019-05-28T09:58:04.603Z,2484.00
2019-05-28T09:59:04.573Z,2564.00
2019-05-28T10:00:04.575Z,2728.00
2019-05-28T10:01:04.552Z,2972.00
2019-05-28T10:02:04.528Z,3048.00
2019-05-28T10:03:04.660Z,3088.00
2019-05-28T10:04:04.483Z,3228.00
2019-05-28T10:05:04.455Z,3444.00
2019-05-28T10:06:16.424Z,3608.00
2019-05-28T10:07:04.432Z,3708.00
2019-05-28T10:08:04.394Z,3576.00
2019-05-28T10:09:04.368Z,3832.00
2019-05-28T10:10:04.345Z,4044.00
2019-05-28T10:11:04.313Z,4144.00
2019-05-28T10:12:04.293Z,4256.00
2019-05-28T10:13:04.251Z,4536.00
2019-05-28T10:14:04.252Z,4592.00
2019-05-28T10:15:04.229Z,4452.00
2019-05-28T10:16:04.197Z,4660.00
2019-05-28T10:17:04.161Z,4604.00
2019-05-28T10:18:04.158Z,4608.00
2019-05-28T10:19:04.139Z,4592.00
2019-05-28T10:20:04.130Z,4780.00
2019-05-28T10:21:17.730Z,4808.00
2019-05-28T10:22:04.066Z,4772.00
2019-05-28T10:23:04.043Z,4740.00
2019-05-28T10:24:04.017Z,4756.00
2019-05-28T10:25:04.002Z,5000.00
2019-05-28T10:26:03.989Z,5468.00
2019-05-28T10:27:03.960Z,5884.00
2019-05-28T10:28:03.929Z,6152.00
2019-05-28T10:29:03.906Z,6228.00
2019-05-28T10:30:03.897Z,6196.00
2019-05-28T10:31:03.892Z,6452.00
2019-05-28T10:32:03.847Z,6824.00
2019-05-28T10:33:03.828Z,6912.00
2019-05-28T10:34:03.799Z,7016.00
2019-05-28T10:35:04.473Z,7236.00
2019-05-28T10:36:03.754Z,7412.00
2019-05-28T10:37:03.745Z,7228.00
2019-05-28T10:38:03.695Z,7524.00
2019-05-28T10:39:03.669Z,7720.00
2019-05-28T10:40:03.671Z,7644.00
2019-05-28T10:41:03.651Z,8052.00
2019-05-28T10:42:03.626Z,8308.00
2019-05-28T10:43:03.590Z,8104.00
2019-05-28T10:44:03.590Z,8028.00
2019-05-28T10:45:03.571Z,9116.00
2019-05-28T10:46:03.566Z,9748.00
2019-05-28T10:47:03.496Z,9244.00
2019-05-28T10:48:03.494Z,9852.00
2019-05-28T10:49:03.476Z,9996.00
2019-05-28T10:50:03.454Z,10044.00
2019-05-28T10:51:03.447Z,10360.00
2019-05-28T10:52:03.408Z,10568.00
2019-05-28T10:53:03.410Z,10600.00
2019-05-28T10:54:03.371Z,10504.00
2019-05-28T10:55:03.417Z,10516.00
2019-05-28T10:56:03.327Z,10872.00
2019-05-28T10:57:03.304Z,11036.00
2019-05-28T10:58:03.279Z,11256.00
2019-05-28T10:59:03.267Z,11500.00
2019-05-28T11:00:03.992Z,11616.00
2019-05-28T11:01:03.218Z,11684.00
2019-05-28T11:02:03.208Z,11956.00
2019-05-28T11:03:03.187Z,11512.00
2019-05-28T11:04:03.164Z,12188.00
2019-05-28T11:05:03.140Z,11652.00
2019-05-28T11:06:03.121Z,11572.00
2019-05-28T11:07:03.102Z,11836.00
2019-05-28T11:08:03.080Z,12196.00
2019-05-28T11:09:03.061Z,12228.00
2019-05-28T11:10:03.054Z,12236.00
2019-05-28T11:11:03.030Z,12656.00
2019-05-28T11:12:02.986Z,12776.00
2019-05-28T11:13:02.986Z,13292.00
2019-05-28T11:14:02.946Z,13352.00
2019-05-28T11:15:02.927Z,13816.00
2019-05-28T11:16:02.923Z,13784.00
2019-05-28T11:17:02.906Z,13800.00
2019-05-28T11:18:02.885Z,13604.00
2019-05-28T11:19:02.868Z,13972.00
2019-05-28T11:20:02.949Z,14372.00
2019-05-28T11:21:08.904Z,14576.00
2019-05-28T11:22:02.809Z,15412.00
2019-05-28T11:23:02.786Z,15540.00
2019-05-28T11:24:02.775Z,15300.00
2019-05-28T11:25:02.750Z,15976.00
2019-05-28T11:26:02.736Z,16076.00
2019-05-28T11:27:02.793Z,16220.00
2019-05-28T11:28:02.722Z,16372.00
2019-05-28T11:29:02.678Z,16768.00
2019-05-28T11:30:02.633Z,16960.00
2019-05-28T11:31:02.618Z,17120.00
2019-05-28T11:32:02.599Z,17344.00
2019-05-28T11:33:02.578Z,17632.00
2019-05-28T11:34:02.589Z,17440.00
2019-05-28T11:35:02.565Z,17696.00
2019-05-28T11:36:02.531Z,17696.00
2019-05-28T11:37:09.500Z,18144.00
2019-05-28T11:38:02.504Z,18176.00
2019-05-28T11:39:02.476Z,18240.00
2019-05-28T11:40:02.479Z,18208.00
2019-05-28T11:41:02.455Z,18368.00
2019-05-28T11:42:02.431Z,18528.00
2019-05-28T11:43:02.415Z,18560.00
2019-05-28T11:44:02.397Z,18880.00
2019-05-28T11:45:02.687Z,18944.00
2019-05-28T11:46:02.357Z,18656.00
2019-05-28T11:47:02.369Z,18816.00
2019-05-28T11:48:02.386Z,18912.00
2019-05-28T11:49:02.295Z,19360.00
2019-05-28T11:50:02.598Z,19264.00
2019-05-28T11:51:02.262Z,19136.00
2019-05-28T11:52:02.257Z,19232.00
2019-05-28T11:53:02.449Z,19392.00
2019-05-28T11:54:02.222Z,19488.00
2019-05-28T11:55:02.204Z,19072.00
2019-05-28T11:56:02.185Z,18528.00
2019-05-28T11:57:02.170Z,19232.00
2019-05-28T11:58:02.148Z,18944.00
2019-05-28T11:59:02.128Z,19552.00
2019-05-28T12:00:02.118Z,20128.00
2019-05-28T12:01:02.091Z,20896.00
2019-05-28T12:02:05.047Z,21184.00
2019-05-28T12:03:02.063Z,21216.00
2019-05-28T12:04:02.047Z,21088.00
2019-05-28T12:05:02.130Z,21728.00
2019-05-28T12:06:02.012Z,21184.00
2019-05-28T12:07:01.976Z,20800.00
2019-05-28T12:08:02.019Z,20064.00
2019-05-28T12:09:01.953Z,20864.00
2019-05-28T12:10:02.169Z,20896.00
2019-05-28T12:11:01.971Z,20960.00
2019-05-28T12:12:01.904Z,20992.00
2019-05-28T12:13:01.888Z,21280.00
2019-05-28T12:14:01.854Z,21472.00
2019-05-28T12:15:01.837Z,21664.00
2019-05-28T12:16:01.847Z,22400.00
2019-05-28T12:17:01.813Z,21408.00
2019-05-28T12:18:01.798Z,22208.00
2019-05-28T12:19:01.805Z,23552.00
2019-05-28T12:20:01.774Z,22720.00
2019-05-28T12:21:01.761Z,23008.00
2019-05-28T12:22:01.770Z,23264.00
2019-05-28T12:23:11.403Z,23296.00
2019-05-28T12:24:01.699Z,22944.00
2019-05-28T12:25:01.854Z,22848.00
2019-05-28T12:26:01.665Z,23072.00
2019-05-28T12:27:01.647Z,23168.00
2019-05-28T12:28:01.661Z,23264.00
2019-05-28T12:29:01.622Z,23520.00
2019-05-28T12:30:01.601Z,23712.00
2019-05-28T12:31:01.581Z,23840.00
2019-05-28T12:32:01.792Z,24064.00
2019-05-28T12:33:01.525Z,24800.00
2019-05-28T12:34:01.531Z,25632.00
2019-05-28T12:35:01.521Z,25696.00
2019-05-28T12:36:01.482Z,25856.00
2019-05-28T12:37:01.483Z,26240.00
2019-05-28T12:38:01.467Z,26880.00
2019-05-28T12:39:01.450Z,27072.00
2019-05-28T12:40:01.438Z,27200.00
2019-05-28T12:41:01.417Z,28256.00
2019-05-28T12:42:06.117Z,29248.00
2019-05-28T12:43:01.370Z,28992.00
2019-05-28T12:44:01.371Z,28576.00
2019-05-28T12:45:09.527Z,28352.00
2019-05-28T12:46:01.334Z,28640.00
2019-05-28T12:47:01.322Z,28960.00
2019-05-28T12:48:12.563Z,29632.00
2019-05-28T12:49:01.298Z,29280.00
2019-05-28T12:50:18.537Z,29216.00
2019-05-28T12:51:02.339Z,29632.00
2019-05-28T12:52:01.252Z,29824.00
2019-05-28T12:53:01.225Z,30528.00
2019-05-28T12:54:01.213Z,31296.00
2019-05-28T12:55:01.200Z,31584.00
2019-05-28T12:56:01.162Z,31712.00
2019-05-28T12:57:01.153Z,32320.00